Time;durP1;ratioP1;P1;durP2;ratioP2;P2;SDS_P1;SDS_P2;PMS_P1;PMS_P2;Temp;Humidity;BMP_temperature;BMP_pressure;BME280_temperature;BME280_humidity;BME280_pressure;Samples;Min_cycle;Max_cycle;Signal;HPM_P1;HPM_P2
2023/10/20 00:01:34;;;;;;;3.83;2.67;;;;;;;8.38;65.16;99109.56;5111712;28;20125;-62
2023/10/20 00:04:02;;;;;;;2.60;2.28;;;;;;;8.36;64.79;99112.34;5131135;27;20076;-55
2023/10/20 00:06:28;;;;;;;3.53;3.17;;;;;;;8.32;65.48;99105.56;5133822;27;20502;-56
2023/10/20 00:08:53;;;;;;;4.95;3.72;;;;;;;8.32;65.54;99122.44;5133941;27;20035;-54
2023/10/20 00:11:19;;;;;;;6.70;3.75;;;;;;;8.30;65.51;99124.34;5117900;27;20051;-58
2023/10/20 00:13:44;;;;;;;7.82;5.35;;;;;;;8.38;65.80;99126.38;5128245;27;20472;-60
2023/10/20 00:16:10;;;;;;;6.63;5.15;;;;;;;8.43;65.69;99124.19;5133821;27;20031;-57
2023/10/20 00:18:48;;;;;;;9.82;6.43;;;;;;;8.64;65.44;99119.91;5133788;27;20517;-56
2023/10/20 00:21:13;;;;;;;7.75;6.20;;;;;;;8.69;64.82;99123.88;5131995;27;20019;-59
2023/10/20 00:23:39;;;;;;;6.18;5.30;;;;;;;8.72;64.82;99115.63;5119905;27;20058;-57
2023/10/20 00:26:04;;;;;;;5.53;4.72;;;;;;;8.75;64.59;99120.69;5112931;28;20044;-58
2023/10/20 00:28:30;;;;;;;6.88;3.30;;;;;;;8.80;63.94;99120.31;5113099;28;20039;-58
2023/10/20 00:30:56;;;;;;;6.97;4.35;;;;;;;8.75;64.34;99125.16;5112847;28;20452;-58
2023/10/20 00:33:21;;;;;;;9.13;3.50;;;;;;;8.75;64.37;99128.69;5125802;27;20034;-58
2023/10/20 00:35:47;;;;;;;6.65;3.92;;;;;;;8.65;64.72;99127.75;5115933;27;20023;-60
2023/10/20 00:38:12;;;;;;;5.43;3.38;;;;;;;8.57;64.30;99122.22;5133881;28;20087;-59
2023/10/20 00:40:48;;;;;;;9.10;3.60;;;;;;;8.53;64.87;99136.81;5122296;28;20023;-57
2023/10/20 00:43:14;;;;;;;8.88;3.83;;;;;;;8.34;65.19;99135.63;5123229;28;20023;-59
2023/10/20 00:45:42;;;;;;;8.27;3.70;;;;;;;8.22;65.83;99126.81;5133923;27;20035;-55
2023/10/20 00:48:08;;;;;;;7.20;3.85;;;;;;;8.14;66.54;99138.09;5133711;27;20034;-59
2023/10/20 00:50:34;;;;;;;7.30;3.88;;;;;;;7.99;66.62;99120.72;5133173;27;20023;-57
2023/10/20 00:53:01;;;;;;;6.90;4.50;;;;;;;7.94;66.94;99130.88;5122838;27;20020;-59
2023/10/20 00:55:30;;;;;;;7.13;4.40;;;;;;;7.73;67.74;99105.00;5111427;28;20023;-56
2023/10/20 00:57:57;;;;;;;7.97;4.90;;;;;;;7.84;67.26;99141.47;5119709;28;20038;-54
2023/10/20 01:00:22;;;;;;;7.25;4.38;;;;;;;7.72;67.47;99135.28;5133223;27;20113;-57
2023/10/20 01:02:48;;;;;;;6.47;4.97;;;;;;;7.51;68.31;99112.06;5126568;27;20157;-57
2023/10/20 01:05:22;;;;;;;6.13;4.55;;;;;;;7.68;68.49;99149.81;5112828;28;20418;-56
2023/10/20 01:07:49;;;;;;;9.18;4.72;;;;;;;7.66;68.56;99157.06;5112347;28;20438;-56
2023/10/20 01:10:15;;;;;;;5.38;4.32;;;;;;;7.61;68.78;99144.97;5111392;28;20064;-57
2023/10/20 01:12:41;;;;;;;6.72;4.50;;;;;;;7.56;68.75;99141.84;5123798;28;20027;-55
2023/10/20 01:15:08;;;;;;;5.50;4.13;;;;;;;7.52;68.68;99145.72;5133087;27;20035;-59
2023/10/20 01:17:33;;;;;;;5.32;4.38;;;;;;;7.47;69.29;99147.88;5133091;27;20099;-58
2023/10/20 01:20:04;;;;;;;4.53;4.03;;;;;;;7.52;69.39;99144.84;5132850;27;20027;-59
2023/10/20 01:22:33;;;;;;;6.03;4.35;;;;;;;7.47;69.23;99150.53;5130846;27;20042;-60
2023/10/20 01:25:01;;;;;;;7.85;4.95;;;;;;;7.24;69.32;99129.25;5126023;27;20064;-56
2023/10/20 01:27:26;;;;;;;7.57;4.70;;;;;;;7.36;69.72;99143.41;5111116;28;20134;-58
2023/10/20 01:29:52;;;;;;;6.25;4.35;;;;;;;7.36;70.07;99148.75;5112346;28;20456;-56
2023/10/20 01:32:18;;;;;;;7.80;5.22;;;;;;;7.37;69.48;99144.25;5122808;28;20027;-58
2023/10/20 01:34:44;;;;;;;5.65;5.13;;;;;;;7.36;69.64;99148.75;5111035;27;20027;-58
2023/10/20 01:37:11;;;;;;;8.02;5.20;;;;;;;7.37;69.80;99141.59;5112365;28;20059;-59
2023/10/20 01:39:38;;;;;;;7.03;5.38;;;;;;;7.37;70.01;99142.44;5110836;28;20092;-55
2023/10/20 01:42:04;;;;;;;6.20;5.10;;;;;;;7.39;69.75;99150.28;5115830;28;20027;-59
2023/10/20 01:44:29;;;;;;;5.95;5.07;;;;;;;7.33;69.83;99135.63;5132876;28;20084;-58
2023/10/20 01:46:55;;;;;;;7.03;5.88;;;;;;;7.17;69.80;99120.00;5132240;27;20055;-57
2023/10/20 01:49:20;;;;;;;5.15;4.60;;;;;;;7.20;69.71;99135.75;5132483;27;20027;-58
2023/10/20 01:51:46;;;;;;;6.28;5.15;;;;;;;7.17;69.62;99141.31;5131092;27;20023;-58
2023/10/20 01:54:12;;;;;;;8.43;5.22;;;;;;;7.09;69.90;99149.88;5134172;27;20042;-56
2023/10/20 01:56:38;;;;;;;7.70;5.28;;;;;;;6.80;70.07;99107.75;5117061;27;20862;-58
2023/10/20 01:59:03;;;;;;;5.72;5.13;;;;;;;7.06;70.07;99157.28;5116846;27;20069;-57
2023/10/20 02:01:30;;;;;;;6.05;5.45;;;;;;;6.79;70.21;99111.38;5133376;27;20045;-57
2023/10/20 02:03:55;;;;;;;5.05;4.55;;;;;;;7.06;70.57;99155.44;5136116;27;20058;-59
2023/10/20 02:06:21;;;;;;;5.20;4.20;;;;;;;7.03;70.14;99161.00;5135474;27;20425;-57
2023/10/20 02:08:46;;;;;;;5.75;4.70;;;;;;;7.02;70.31;99170.84;5134101;27;20110;-60
2023/10/20 02:11:12;;;;;;;5.97;4.10;;;;;;;6.79;70.30;99130.00;5122110;27;20114;-57
2023/10/20 02:13:42;;;;;;;5.63;5.03;;;;;;;7.02;70.81;99165.50;5116895;27;20392;-56
2023/10/20 02:16:10;;;;;;;6.45;4.85;;;;;;;7.00;70.72;99172.75;5114625;28;20059;-59
2023/10/20 02:18:36;;;;;;;6.97;4.82;;;;;;;7.01;71.22;99174.47;5116335;27;20513;-57
2023/10/20 02:21:07;;;;;;;6.22;5.18;;;;;;;6.99;71.32;99175.53;5115342;27;20046;-53
2023/10/20 02:23:35;;;;;;;6.97;5.30;;;;;;;6.96;71.32;99173.94;5115477;28;20066;-57
2023/10/20 02:26:08;;;;;;;7.43;5.47;;;;;;;6.96;71.56;99173.94;5114439;28;20035;-59
2023/10/20 02:28:37;;;;;;;8.68;6.10;;;;;;;7.00;71.63;99174.56;5118969;27;20029;-56
2023/10/20 02:31:12;;;;;;;7.07;5.63;;;;;;;7.01;71.95;99173.59;5135665;27;20035;-56
2023/10/20 02:33:37;;;;;;;8.23;6.10;;;;;;;6.95;72.02;99164.25;5135559;27;20391;-52
2023/10/20 02:36:03;;;;;;;10.02;6.28;;;;;;;6.99;71.91;99173.72;5135277;27;20103;-50
2023/10/20 02:38:28;;;;;;;7.68;5.65;;;;;;;6.97;72.20;99162.31;5133274;27;20031;-51
2023/10/20 02:40:54;;;;;;;8.13;6.07;;;;;;;6.93;72.09;99157.38;5115473;27;20108;-51
2023/10/20 02:43:24;;;;;;;8.93;6.40;;;;;;;7.09;72.37;99170.34;5114327;27;20032;-58
2023/10/20 02:45:53;;;;;;;9.75;6.15;;;;;;;7.05;72.21;99169.72;5115104;27;20036;-50
2023/10/20 02:48:19;;;;;;;8.73;5.97;;;;;;;7.03;72.47;99169.88;5116010;27;20068;-52
2023/10/20 02:50:45;;;;;;;9.65;6.40;;;;;;;7.06;72.61;99171.41;5114451;28;20427;-51
2023/10/20 02:53:13;;;;;;;8.80;6.07;;;;;;;7.03;71.93;99164.53;5114334;28;20135;-51
2023/10/20 02:55:40;;;;;;;10.18;6.70;;;;;;;7.02;72.03;99165.50;5112885;28;20078;-57
2023/10/20 02:58:05;;;;;;;8.23;6.00;;;;;;;7.05;72.51;99161.75;5114562;27;20046;-57
2023/10/20 03:00:31;;;;;;;9.35;6.25;;;;;;;7.02;72.28;99156.66;5114468;27;20040;-55
2023/10/20 03:02:58;;;;;;;8.55;6.18;;;;;;;7.07;71.65;99167.78;5114281;28;20031;-56
2023/10/20 03:05:27;;;;;;;7.90;5.65;;;;;;;7.14;72.08;99165.50;5113987;28;20035;-57
2023/10/20 03:07:53;;;;;;;10.57;6.72;;;;;;;6.88;71.20;99126.66;5114151;28;20089;-55
2023/10/20 03:10:20;;;;;;;9.25;6.50;;;;;;;7.11;71.38;99163.09;5114906;27;20025;-58
2023/10/20 03:12:45;;;;;;;10.18;6.70;;;;;;;7.10;71.03;99166.72;5113981;27;20035;-58
2023/10/20 03:15:11;;;;;;;8.63;6.40;;;;;;;7.09;71.04;99163.19;5114225;28;20028;-59
2023/10/20 03:17:36;;;;;;;10.02;6.07;;;;;;;7.00;71.36;99164.78;5114185;28;20084;-58
2023/10/20 03:20:08;;;;;;;9.43;6.38;;;;;;;6.98;71.29;99163.19;5114745;27;20505;-57
2023/10/20 03:22:34;;;;;;;9.02;6.60;;;;;;;6.74;71.10;99135.66;5113574;28;20075;-53
2023/10/20 03:25:02;;;;;;;11.02;6.65;;;;;;;6.92;71.56;99163.66;5113670;28;20024;-56
2023/10/20 03:27:32;;;;;;;9.45;6.63;;;;;;;6.91;71.21;99170.78;5117328;27;20069;-58
2023/10/20 03:29:58;;;;;;;7.93;6.18;;;;;;;6.86;71.27;99176.44;5113732;27;20066;-55
2023/10/20 03:32:24;;;;;;;8.98;6.30;;;;;;;6.88;71.58;99168.34;5114299;28;20110;-55
2023/10/20 03:34:50;;;;;;;9.20;6.72;;;;;;;6.92;70.81;99169.81;5113873;28;20437;-52
2023/10/20 03:37:15;;;;;;;11.27;7.00;;;;;;;6.57;71.51;99150.22;5113605;28;20028;-52
2023/10/20 03:39:43;;;;;;;9.30;6.80;;;;;;;6.75;71.42;99179.09;5114334;27;20111;-53
2023/10/20 03:42:13;;;;;;;8.93;6.28;;;;;;;6.74;71.17;99172.91;5113777;27;20028;-51
2023/10/20 03:44:38;;;;;;;11.25;6.75;;;;;;;6.40;71.89;99138.19;5112813;28;20438;-50
2023/10/20 03:47:05;;;;;;;10.30;5.88;;;;;;;6.72;70.69;99181.97;5113562;28;20030;-53
2023/10/20 03:49:33;;;;;;;6.70;5.10;;;;;;;6.59;71.54;99198.00;5128139;27;20027;-51
2023/10/20 03:51:59;;;;;;;9.25;5.10;;;;;;;6.47;72.51;99186.47;5133934;27;20036;-59
2023/10/20 03:54:25;;;;;;;5.40;2.95;;;;;;;6.57;70.36;99173.34;5134001;27;20023;-53
2023/10/20 03:56:51;;;;;;;5.55;3.80;;;;;;;6.40;70.97;99182.56;5113266;27;20038;-57
2023/10/20 03:59:17;;;;;;;5.07;3.30;;;;;;;6.07;71.89;99149.50;5124935;27;20529;-56
2023/10/20 04:01:43;;;;;;;5.85;3.58;;;;;;;6.26;72.82;99195.06;5133624;27;20797;-56
2023/10/20 04:04:11;;;;;;;4.75;3.53;;;;;;;6.29;73.09;99194.81;5133678;27;20345;-57
2023/10/20 04:06:37;;;;;;;5.38;3.33;;;;;;;6.33;72.70;99200.78;5133973;27;20102;-55
2023/10/20 04:09:08;;;;;;;3.40;2.80;;;;;;;6.31;72.05;99186.75;5131886;27;20023;-56
2023/10/20 04:11:35;;;;;;;4.28;2.75;;;;;;;6.42;72.33;99208.06;5115317;27;20035;-60
2023/10/20 04:14:02;;;;;;;3.50;2.88;;;;;;;6.42;72.20;99201.91;5114333;27;20026;-57
2023/10/20 04:16:28;;;;;;;3.90;2.95;;;;;;;6.43;72.46;99200.97;5112121;27;20450;-55
2023/10/20 04:18:54;;;;;;;4.20;2.85;;;;;;;6.43;72.59;99211.59;5114423;27;20034;-57
2023/10/20 04:21:20;;;;;;;4.75;3.25;;;;;;;6.45;73.25;99201.69;5113102;28;20027;-54
2023/10/20 04:23:45;;;;;;;5.88;2.85;;;;;;;6.42;73.09;99201.91;5111954;28;20126;-58
2023/10/20 04:26:18;;;;;;;4.60;3.00;;;;;;;6.48;73.55;99206.78;5112913;28;20085;-55
2023/10/20 04:28:44;;;;;;;4.07;2.97;;;;;;;6.55;72.90;99215.16;5114040;27;20123;-56
2023/10/20 04:53:05;;;;;;;3.72;2.63;;;;;;;6.45;72.87;99207.84;5115825;27;20161;-59
2023/10/20 04:58:24;;;;;;;4.50;3.22;;;;;;;6.55;72.91;99218.66;5112227;28;20036;-60
2023/10/20 05:01:03;;;;;;;4.95;3.22;;;;;;;6.53;73.00;99217.91;5111842;28;20105;-60
2023/10/20 05:03:34;;;;;;;5.53;3.17;;;;;;;6.63;73.05;99210.09;5112057;28;20023;-59
2023/10/20 05:06:20;;;;;;;6.28;3.65;;;;;;;6.75;72.84;99222.50;5113654;28;20088;-59
2023/10/20 05:08:46;;;;;;;4.38;3.33;;;;;;;6.80;72.87;99223.97;5112033;28;20423;-57
2023/10/20 05:11:12;;;;;;;4.68;3.10;;;;;;;6.80;72.35;99232.78;5115967;28;20031;-60
2023/10/20 05:13:38;;;;;;;4.43;3.25;;;;;;;6.70;72.13;99216.66;5133043;27;20083;-59
2023/10/20 05:16:03;;;;;;;5.25;3.28;;;;;;;6.78;73.32;99231.22;5132841;27;20023;-57
2023/10/20 05:18:29;;;;;;;5.40;3.35;;;;;;;6.74;73.29;99214.63;5131706;28;20088;-59
2023/10/20 05:20:55;;;;;;;4.88;3.15;;;;;;;6.79;72.95;99214.31;5132744;27;20407;-63
2023/10/20 05:23:21;;;;;;;4.50;3.20;;;;;;;6.91;73.01;99232.00;5132989;27;20055;-61
2023/10/20 05:25:48;;;;;;;7.55;3.78;;;;;;;6.90;73.01;99235.63;5121806;27;20031;-62
2023/10/20 05:28:15;;;;;;;6.88;4.13;;;;;;;6.83;73.21;99234.38;5114784;28;20429;-56
2023/10/20 05:30:43;;;;;;;7.63;4.57;;;;;;;6.80;73.19;99229.28;5116314;28;20398;-58
2023/10/20 05:33:09;;;;;;;7.50;4.88;;;;;;;6.64;73.17;99203.81;5116069;28;20043;-59
2023/10/20 05:35:35;;;;;;;7.30;4.72;;;;;;;6.67;72.99;99216.91;5117214;27;20518;-59
2023/10/20 05:38:00;;;;;;;6.78;4.80;;;;;;;6.71;73.21;99218.34;5115669;27;20027;-60
2023/10/20 05:40:26;;;;;;;8.18;5.03;;;;;;;6.65;73.04;99213.50;5116757;27;20078;-63
2023/10/20 05:42:51;;;;;;;10.00;5.22;;;;;;;6.69;73.08;99220.28;5116269;28;20032;-57
2023/10/20 05:45:17;;;;;;;8.35;5.30;;;;;;;6.75;73.30;99222.50;5115422;28;20122;-58
2023/10/20 05:47:44;;;;;;;7.93;4.70;;;;;;;6.75;73.18;99219.84;5116557;27;20064;-59
2023/10/20 05:50:09;;;;;;;7.80;5.30;;;;;;;6.88;72.89;99226.91;5115667;28;20055;-57
2023/10/20 05:52:35;;;;;;;8.85;5.38;;;;;;;6.91;72.42;99231.16;5115912;28;20031;-60
2023/10/20 05:55:03;;;;;;;8.13;5.13;;;;;;;6.70;72.45;99186.56;5115137;28;20030;-59
2023/10/20 05:57:32;;;;;;;9.27;5.50;;;;;;;6.89;72.33;99213.50;5116577;27;20131;-61
2023/10/20 06:00:03;;;;;;;9.80;6.15;;;;;;;6.91;72.12;99209.88;5114363;28;20123;-57
2023/10/20 06:02:32;;;;;;;12.13;6.15;;;;;;;6.96;73.02;99210.38;5115859;28;20023;-58
2023/10/20 06:04:57;;;;;;;21.50;12.45;;;;;;;6.99;72.08;99213.66;5116712;27;20032;-64
2023/10/20 06:07:23;;;;;;;16.70;10.40;;;;;;;7.42;69.66;99236.13;5115638;28;20430;-58
2023/10/20 06:09:49;;;;;;;17.58;11.38;;;;;;;7.18;70.39;99239.72;5114774;28;20039;-59
2023/10/20 06:12:15;;;;;;;17.00;10.32;;;;;;;7.16;69.96;99230.13;5114973;28;20353;-56
2023/10/20 06:14:40;;;;;;;12.80;7.40;;;;;;;7.36;68.74;99246.41;5115732;28;20023;-60
2023/10/20 06:17:05;;;;;;;10.32;5.85;;;;;;;7.37;67.04;99242.78;5114908;28;20035;-59
2023/10/20 06:19:31;;;;;;;8.38;4.70;;;;;;;7.37;66.20;99229.47;5118964;27;20031;-59
2023/10/20 06:21:57;;;;;;;4.60;3.67;;;;;;;7.42;65.78;99243.25;5115587;28;20046;-59
2023/10/20 06:24:24;;;;;;;8.15;3.80;;;;;;;7.53;64.47;99245.09;5115458;28;20131;-59
2023/10/20 06:26:50;;;;;;;5.55;4.10;;;;;;;7.50;64.56;99248.88;5114212;28;20085;-54
2023/10/20 06:31:46;;;;;;;4.93;3.17;;;;;;;7.72;63.54;99229.38;5115144;28;20065;-59
2023/10/20 06:34:23;;;;;;;1.98;1.40;;;;;;;7.97;62.48;99245.28;5116229;27;20094;-59
2023/10/20 06:37:18;;;;;;;2.10;1.17;;;;;;;8.21;61.47;99246.97;5114402;28;20202;-60
2023/10/20 06:39:44;;;;;;;2.58;1.25;;;;;;;8.25;61.46;99248.41;5112455;28;20031;-61
2023/10/20 06:42:09;;;;;;;2.83;1.60;;;;;;;8.16;62.34;99255.31;5122502;27;20031;-60
2023/10/20 06:44:35;;;;;;;2.50;1.80;;;;;;;7.96;63.34;99247.06;5129356;27;20135;-59
2023/10/20 06:47:01;;;;;;;2.38;2.15;;;;;;;7.81;64.74;99257.13;5112951;28;20027;-61
2023/10/20 06:49:27;;;;;;;3.08;2.13;;;;;;;7.84;65.20;99250.72;5114668;27;20035;-62
2023/10/20 06:51:54;;;;;;;2.85;2.40;;;;;;;7.90;64.62;99251.06;5114515;28;20031;-58
2023/10/20 06:54:19;;;;;;;5.15;2.65;;;;;;;7.92;64.88;99242.97;5114641;28;20254;-61
2023/10/20 06:56:45;;;;;;;3.72;2.80;;;;;;;8.08;63.67;99252.38;5114747;27;20438;-59
2023/10/20 06:59:13;;;;;;;4.15;2.83;;;;;;;7.97;64.14;99247.94;5114030;28;20221;-60
2023/10/20 07:01:43;;;;;;;6.38;3.10;;;;;;;8.00;64.27;99248.53;5114277;28;20024;-61
2023/10/20 07:04:09;;;;;;;6.05;3.22;;;;;;;7.77;64.93;99253.03;5115709;27;20026;-58
2023/10/20 07:06:36;;;;;;;5.78;3.58;;;;;;;7.73;65.56;99264.88;5114101;28;20434;-59
2023/10/20 07:09:11;;;;;;;4.18;2.88;;;;;;;7.60;65.42;99260.50;5112840;28;20046;-63
2023/10/20 07:11:38;;;;;;;2.83;2.42;;;;;;;7.81;64.68;99262.47;5114257;28;20345;-61
2023/10/20 07:14:05;;;;;;;6.20;2.97;;;;;;;7.54;65.54;99255.66;5114112;28;20043;-59
2023/10/20 07:16:31;;;;;;;3.58;3.17;;;;;;;7.54;65.37;99276.97;5114969;27;20027;-62
2023/10/20 07:18:56;;;;;;;3.90;2.92;;;;;;;7.26;66.45;99265.75;5114471;28;20062;-62
2023/10/20 07:21:22;;;;;;;4.93;3.08;;;;;;;7.18;67.88;99276.13;5115458;27;20114;-55
2023/10/20 07:23:47;;;;;;;5.57;3.50;;;;;;;7.16;67.64;99272.72;5125366;27;20051;-60
2023/10/20 07:26:17;;;;;;;5.13;3.53;;;;;;;7.09;67.29;99251.03;5113646;28;20040;-62
2023/10/20 07:28:46;;;;;;;4.88;3.30;;;;;;;7.33;66.45;99280.31;5113154;28;20062;-61
2023/10/20 07:31:16;;;;;;;4.10;3.38;;;;;;;7.21;66.90;99289.19;5111288;28;20028;-62
2023/10/20 07:33:41;;;;;;;2.95;2.65;;;;;;;7.27;66.88;99296.75;5113923;28;20114;-61
2023/10/20 07:36:07;;;;;;;7.90;3.42;;;;;;;7.40;65.93;99301.13;5113735;28;20106;-61
2023/10/20 07:38:33;;;;;;;5.55;3.70;;;;;;;7.27;66.73;99307.41;5113779;28;20039;-62
2023/10/20 07:41:06;;;;;;;5.10;3.97;;;;;;;7.15;67.30;99302.97;5112818;28;20031;-63
2023/10/20 07:43:33;;;;;;;4.35;3.40;;;;;;;7.15;67.35;99316.28;5110215;28;21345;-66
2023/10/20 07:45:58;;;;;;;6.10;4.03;;;;;;;7.12;68.22;99303.22;5111303;28;20036;-64
2023/10/20 07:48:26;;;;;;;7.10;3.40;;;;;;;7.06;67.94;99293.03;5112339;28;20073;-62
2023/10/20 07:50:52;;;;;;;6.57;3.78;;;;;;;6.84;68.93;99271.50;5111700;28;20045;-63
2023/10/20 07:53:18;;;;;;;6.30;3.58;;;;;;;7.11;69.76;99314.81;5113970;27;20373;-64
2023/10/20 07:55:44;;;;;;;7.65;3.72;;;;;;;7.23;70.11;99305.91;5115237;27;20039;-57
2023/10/20 07:58:10;;;;;;;5.22;4.07;;;;;;;7.44;67.66;99289.28;5114067;27;20465;-62
2023/10/20 08:00:36;;;;;;;5.35;3.60;;;;;;;7.30;67.73;99295.66;5116833;27;20114;-60
2023/10/20 08:03:02;;;;;;;7.18;3.95;;;;;;;7.24;68.22;99301.44;5130817;27;20031;-59
2023/10/20 08:05:28;;;;;;;5.75;3.90;;;;;;;7.14;69.20;99290.63;5115347;27;20027;-59
2023/10/20 08:07:55;;;;;;;4.80;3.85;;;;;;;7.23;68.54;99299.75;5130106;27;20145;-61
2023/10/20 08:10:23;;;;;;;6.40;4.43;;;;;;;7.23;68.61;99294.41;5126000;27;20034;-59
2023/10/20 08:12:49;;;;;;;5.28;3.92;;;;;;;7.16;69.35;99292.22;5127591;27;20124;-59
2023/10/20 08:15:15;;;;;;;7.43;4.90;;;;;;;7.22;69.85;99296.22;5121614;27;20144;-59
2023/10/20 08:17:40;;;;;;;8.23;4.60;;;;;;;7.20;69.82;99276.84;5115072;27;20027;-60
2023/10/20 08:20:09;;;;;;;7.57;4.50;;;;;;;7.30;69.17;99290.31;5114343;27;20047;-63
2023/10/20 08:22:35;;;;;;;6.72;4.80;;;;;;;7.39;67.91;99304.75;5113158;27;20114;-62
2023/10/20 08:25:01;;;;;;;7.05;5.18;;;;;;;7.42;68.13;99308.06;5125670;27;20454;-63
2023/10/20 08:27:28;;;;;;;5.53;4.97;;;;;;;7.15;69.67;99300.31;5116734;27;20378;-62
2023/10/20 08:29:57;;;;;;;8.75;5.40;;;;;;;7.16;69.58;99304.69;5112864;28;20035;-62
2023/10/20 08:32:24;;;;;;;8.27;5.40;;;;;;;7.39;68.38;99310.09;5119621;27;20020;-63
2023/10/20 08:34:50;;;;;;;9.85;6.07;;;;;;;7.19;69.55;99317.75;5116607;27;20523;-60
2023/10/20 08:37:17;;;;;;;8.45;5.80;;;;;;;7.03;70.30;99310.06;5120185;27;20049;-62
2023/10/20 08:39:44;;;;;;;7.15;5.90;;;;;;;7.06;70.17;99303.69;5115650;27;20032;-62
2023/10/20 08:42:16;;;;;;;9.25;6.55;;;;;;;7.11;69.02;99288.22;5121463;27;20457;-62
2023/10/20 08:44:43;;;;;;;8.95;6.75;;;;;;;7.29;68.89;99329.44;5128025;27;20078;-62
2023/10/20 08:47:14;;;;;;;10.57;6.53;;;;;;;7.10;69.95;99321.13;5126237;27;20039;-62
2023/10/20 08:49:41;;;;;;;7.97;6.47;;;;;;;6.82;70.11;99294.72;5116751;28;20040;-62
2023/10/20 08:52:10;;;;;;;11.15;7.07;;;;;;;7.07;70.03;99316.84;5117225;28;20027;-62
2023/10/20 08:54:36;;;;;;;10.43;6.70;;;;;;;6.81;69.68;99285.03;5113384;28;20469;-63
2023/10/20 08:57:02;;;;;;;10.05;6.93;;;;;;;6.98;70.85;99326.38;5125285;28;20035;-62
2023/10/20 08:59:28;;;;;;;9.52;6.78;;;;;;;6.99;70.84;99320.13;5126271;27;20417;-61
2023/10/20 09:01:54;;;;;;;11.20;6.22;;;;;;;7.29;68.97;99321.44;5111259;28;20023;-61
2023/10/20 09:04:22;;;;;;;11.52;7.78;;;;;;;7.17;69.11;99325.00;5118355;27;20024;-62
2023/10/20 09:06:48;;;;;;;10.98;7.90;;;;;;;7.11;69.37;99330.81;5128322;27;20023;-62
2023/10/20 09:09:14;;;;;;;11.25;8.15;;;;;;;7.16;68.40;99310.00;5137427;27;20035;-62
2023/10/20 09:11:40;;;;;;;11.73;7.65;;;;;;;7.15;69.14;99318.97;5118602;27;20038;-64
2023/10/20 09:14:06;;;;;;;15.68;8.75;;;;;;;6.93;69.93;99320.53;5117028;28;20027;-60
2023/10/20 09:16:34;;;;;;;12.35;8.82;;;;;;;6.97;69.68;99324.66;5126091;27;20125;-62
2023/10/20 09:18:59;;;;;;;12.45;9.05;;;;;;;6.83;69.17;99304.41;5135863;27;20457;-59
2023/10/20 09:21:28;;;;;;;13.48;9.23;;;;;;;6.94;69.31;99314.25;5137182;27;20054;-62
2023/10/20 09:24:02;;;;;;;14.10;8.45;;;;;;;7.01;69.49;99333.28;5137036;27;20039;-62
2023/10/20 09:26:30;;;;;;;14.18;9.90;;;;;;;7.01;69.35;99334.16;5118347;27;20054;-62
2023/10/20 09:28:56;;;;;;;13.02;9.07;;;;;;;6.98;69.89;99341.50;5116296;27;20108;-59
2023/10/20 09:31:24;;;;;;;12.73;8.93;;;;;;;6.92;70.76;99352.59;5116251;28;20395;-61
2023/10/20 09:33:50;;;;;;;15.05;9.88;;;;;;;6.98;69.50;99334.34;5114958;28;20438;-61
2023/10/20 09:36:17;;;;;;;14.77;9.95;;;;;;;6.97;69.96;99337.97;5130467;27;20031;-60
2023/10/20 09:38:50;;;;;;;16.08;10.98;;;;;;;7.14;69.99;99328.78;5136731;27;20027;-61
2023/10/20 09:41:17;;;;;;;15.60;10.88;;;;;;;7.03;70.06;99318.91;5118580;27;20020;-59
2023/10/20 09:43:48;;;;;;;16.08;10.23;;;;;;;7.08;69.35;99307.06;5115059;28;20438;-60
2023/10/20 09:46:19;;;;;;;15.68;10.88;;;;;;;7.25;69.06;99327.09;5117219;27;20342;-62
2023/10/20 09:48:47;;;;;;;19.75;11.45;;;;;;;7.23;69.07;99339.69;5116094;28;20044;-61
2023/10/20 09:51:15;;;;;;;16.95;10.68;;;;;;;7.31;68.52;99339.97;5115751;27;20111;-61
2023/10/20 09:53:42;;;;;;;20.25;11.00;;;;;;;7.10;69.18;99326.44;5116185;28;20023;-59
2023/10/20 09:56:09;;;;;;;17.67;10.35;;;;;;;7.12;69.22;99351.13;5114780;27;20503;-62
2023/10/20 09:58:36;;;;;;;15.30;11.23;;;;;;;6.99;69.67;99338.75;5116917;27;20027;-66
2023/10/20 10:01:03;;;;;;;14.77;10.65;;;;;;;7.13;68.78;99334.19;5116290;27;20031;-60
2023/10/20 10:03:40;;;;;;;15.65;10.25;;;;;;;6.99;68.82;99322.78;5122813;27;20038;-62
2023/10/20 10:06:10;;;;;;;15.13;10.93;;;;;;;7.15;68.98;99322.47;5136150;27;20441;-63
2023/10/20 10:08:43;;;;;;;16.67;11.18;;;;;;;7.22;68.83;99333.50;5125632;27;20028;-62
2023/10/20 10:11:20;;;;;;;16.42;10.70;;;;;;;7.26;68.14;99327.00;5116092;27;20028;-62
2023/10/20 10:13:53;;;;;;;12.77;9.93;;;;;;;7.14;68.90;99336.75;5117737;27;20023;-63
2023/10/20 10:16:20;;;;;;;12.27;9.73;;;;;;;6.99;69.32;99320.13;5131249;27;20027;-62
2023/10/20 10:18:46;;;;;;;13.27;9.18;;;;;;;7.22;67.87;99330.00;5134309;27;20027;-62
2023/10/20 10:21:29;;;;;;;13.52;8.95;;;;;;;7.46;67.19;99305.97;5117502;27;20027;-62
2023/10/20 10:24:17;;;;;;;14.93;9.10;;;;;;;7.36;67.73;99332.50;5123808;27;20091;-61
2023/10/20 10:26:55;;;;;;;15.55;9.75;;;;;;;7.20;68.24;99332.78;5112320;27;20095;-62
2023/10/20 10:30:05;;;;;;;11.68;8.55;;;;;;;7.12;69.13;99335.16;5102705;27;20030;-61
2023/10/20 10:32:44;;;;;;;12.93;8.32;;;;;;;7.15;69.10;99332.28;5116660;27;20358;-60
2023/10/20 10:35:15;;;;;;;13.88;8.15;;;;;;;7.29;68.98;99347.22;5130104;27;20031;-61
2023/10/20 10:37:41;;;;;;;11.65;8.00;;;;;;;7.09;67.96;99292.81;5133449;27;20462;-62
2023/10/20 10:40:15;;;;;;;9.40;7.45;;;;;;;7.46;68.53;99349.47;5113890;27;20111;-64
2023/10/20 10:42:47;;;;;;;9.73;6.00;;;;;;;7.57;67.34;99350.44;5132509;27;20028;-59
2023/10/20 10:45:23;;;;;;;6.07;4.28;;;;;;;7.90;66.26;99347.03;5115007;28;20106;-62
2023/10/20 10:47:50;;;;;;;3.72;2.88;;;;;;;7.76;64.41;99307.28;5121506;27;20358;-60
2023/10/20 10:50:20;;;;;;;3.72;2.72;;;;;;;7.58;65.43;99354.81;5115766;27;20073;-61
2023/10/20 10:52:47;;;;;;;4.10;3.20;;;;;;;7.51;65.08;99346.47;5114415;28;20063;-59
2023/10/20 10:55:13;;;;;;;5.63;3.92;;;;;;;7.25;65.91;99312.00;5113532;28;20020;-62
2023/10/20 10:57:40;;;;;;;5.95;3.97;;;;;;;7.35;67.06;99332.59;5114484;28;20020;-61
2023/10/20 11:00:07;;;;;;;5.43;3.90;;;;;;;7.52;65.72;99323.31;5114502;27;20028;-62
2023/10/20 11:02:33;;;;;;;6.97;3.92;;;;;;;7.67;67.52;99339.94;5131877;27;20069;-63
2023/10/20 11:05:00;;;;;;;6.82;4.47;;;;;;;7.78;66.25;99305.34;5134989;27;20034;-63
2023/10/20 11:07:26;;;;;;;6.97;5.38;;;;;;;7.93;66.73;99337.97;5135015;27;20027;-63
2023/10/20 11:09:53;;;;;;;9.05;5.45;;;;;;;8.07;68.16;99344.00;5119601;27;20038;-64
2023/10/20 11:12:22;;;;;;;9.13;5.75;;;;;;;8.32;66.06;99340.28;5114212;28;20032;-64
2023/10/20 11:14:47;;;;;;;7.97;5.80;;;;;;;8.39;65.80;99344.16;5114260;28;20111;-60
2023/10/20 11:17:14;;;;;;;7.53;4.93;;;;;;;8.45;64.53;99351.69;5113760;28;20131;-61
2023/10/20 11:19:40;;;;;;;9.60;5.43;;;;;;;8.48;64.19;99356.78;5114126;27;20038;-65
2023/10/20 11:22:14;;;;;;;9.57;6.95;;;;;;;8.12;65.94;99348.03;5114088;28;20027;-65
2023/10/20 11:24:40;;;;;;;11.60;6.85;;;;;;;7.90;66.94;99336.38;5114031;27;20359;-62
2023/10/20 11:27:06;;;;;;;9.82;6.97;;;;;;;7.74;67.11;99315.38;5113506;28;20038;-69
2023/10/20 11:29:35;;;;;;;9.90;6.03;;;;;;;7.98;65.70;99343.78;5119861;27;20031;-64
2023/10/20 11:32:05;;;;;;;9.30;6.57;;;;;;;8.02;65.81;99355.06;5126896;27;20123;-61
2023/10/20 11:34:36;;;;;;;8.00;5.80;;;;;;;7.85;66.49;99346.53;5117234;27;20035;-61
2023/10/20 11:37:03;;;;;;;15.98;6.15;;;;;;;7.68;67.25;99353.16;5111875;28;20032;-63
2023/10/20 11:39:29;;;;;;;19.65;6.80;;;;;;;7.63;67.62;99350.00;5113045;27;20047;-64
2023/10/20 11:41:55;;;;;;;11.48;6.40;;;;;;;7.61;66.86;99334.13;5111507;28;20442;-62
2023/10/20 11:44:24;;;;;;;10.10;6.75;;;;;;;7.41;67.32;99297.50;5112193;28;20070;-60
2023/10/20 11:46:52;;;;;;;16.30;7.00;;;;;;;7.83;66.22;99345.81;5112747;28;20028;-60
2023/10/20 11:49:18;;;;;;;10.85;7.03;;;;;;;7.71;66.50;99354.72;5113687;27;20510;-63
2023/10/20 11:51:44;;;;;;;9.65;6.97;;;;;;;7.66;66.84;99343.59;5129900;27;20035;-61
2023/10/20 11:54:10;;;;;;;9.48;6.70;;;;;;;7.76;66.80;99352.59;5115952;27;20520;-61
2023/10/20 11:56:37;;;;;;;10.27;7.40;;;;;;;7.69;66.93;99359.34;5115591;27;20043;-63
2023/10/20 11:59:02;;;;;;;11.63;6.93;;;;;;;7.45;67.69;99322.94;5116872;27;20061;-63
2023/10/20 12:01:31;;;;;;;9.93;7.30;;;;;;;7.70;66.66;99359.22;5113293;28;20397;-62
2023/10/20 12:03:59;;;;;;;8.70;7.30;;;;;;;7.61;67.16;99365.28;5113268;28;20036;-60
2023/10/20 12:06:24;;;;;;;9.93;7.15;;;;;;;7.82;65.90;99346.78;5113300;28;20038;-60
2023/10/20 12:08:50;;;;;;;8.93;6.97;;;;;;;7.66;65.92;99356.91;5114594;28;20373;-61